Time;durP1;ratioP1;P1;durP2;ratioP2;P2;SDS_P1;SDS_P2;PMS_P1;PMS_P2;Temp;Humidity;BMP_temperature;BMP_pressure;BME280_temperature;BME280_humidity;BME280_pressure;Samples;Min_cycle;Max_cycle;Signal;HPM_P1;HPM_P2
2023/04/17 00:00:32;;;;;;;;;;;11.20;99.90;;;11.46;68.65;99116.91;4984076;28;113924;-80
2023/04/17 00:03:01;;;;;;;;;;;11.20;99.90;;;11.47;69.12;99115.75;4978452;28;124396;-85
2023/04/17 00:05:30;;;;;;;;;;;11.20;99.90;;;11.48;68.76;99117.41;4980145;28;123501;-82
2023/04/17 00:07:58;;;;;;;;;;;11.20;99.90;;;11.45;68.63;99110.56;4984500;28;114282;-81
2023/04/17 00:10:28;;;;;;;;;;;11.20;99.90;;;11.43;68.79;99110.03;4981857;28;113599;-82
2023/04/17 00:12:54;;;;;;;;;;;11.10;99.80;;;11.41;68.82;99120.59;4980723;28;124628;-79
2023/04/17 00:15:28;;;;;;;;;;;11.10;99.80;;;11.40;68.62;99121.72;4976845;28;121510;-81
2023/04/17 00:17:55;;;;;;;;;;;11.10;99.80;;;11.42;68.60;99115.91;4975405;28;114033;-78
2023/04/17 00:20:21;;;;;;;;;;;11.10;99.80;;;11.40;68.46;99113.44;4979020;28;112940;-76
2023/04/17 00:22:50;;;;;;;;;;;11.10;99.80;;;11.40;68.56;99118.97;4972195;28;124001;-77
2023/04/17 00:25:16;;;;;;;;;;;11.10;99.80;;;11.42;68.52;99110.38;4984001;28;124032;-77
2023/04/17 00:27:42;;;;;;;;;;;11.20;99.80;;;11.43;68.72;99107.28;4988994;28;114437;-80
2023/04/17 00:30:09;;;;;;;;;;;11.10;99.80;;;11.46;68.61;99111.38;4976229;28;112900;-78
2023/04/17 00:32:37;;;;;;;;;;;11.20;99.80;;;11.47;68.25;99113.84;4977548;28;124550;-80
2023/04/17 00:35:04;;;;;;;;;;;11.20;99.80;;;11.47;68.55;99113.84;4986351;28;122781;-77
2023/04/17 00:37:30;;;;;;;;;;;11.20;99.80;;;11.46;68.25;99105.84;4992959;28;115203;-78
2023/04/17 00:39:57;;;;;;;;;;;11.20;99.70;;;11.47;68.59;99107.44;4988737;28;114796;-82
2023/04/17 00:42:25;;;;;;;;;;;11.10;99.70;;;11.45;68.12;99105.00;4971191;28;124636;-79
2023/04/17 00:44:52;;;;;;;;;;;11.20;99.70;;;11.45;68.29;99105.00;4982274;28;123034;-79
2023/04/17 00:47:21;;;;;;;;;;;11.20;99.70;;;11.47;68.29;99099.16;4990100;28;114518;-80
2023/04/17 00:49:54;;;;;;;;;;;11.20;99.70;;;11.48;68.04;99098.84;4975065;28;115293;-80
2023/04/17 00:52:30;;;;;;;;;;;11.20;99.70;;;11.46;68.10;99090.03;4977064;28;124279;-77
2023/04/17 00:54:57;;;;;;;;;;;11.20;99.70;;;11.43;68.35;99096.19;4989455;28;123984;-78
2023/04/17 00:57:24;;;;;;;;;;;11.20;99.60;;;11.45;67.95;99093.13;4984588;28;114311;-82
2023/04/17 00:59:58;;;;;;;;;;;11.20;99.70;;;11.41;67.94;99092.91;4977294;28;113816;-80
2023/04/17 01:02:25;;;;;;;;;;;11.10;99.60;;;11.42;68.41;99093.75;4975853;28;124169;-78
2023/04/17 01:04:53;;;;;;;;;;;11.10;99.60;;;11.41;68.06;99097.63;4969322;28;123930;-78
2023/04/17 01:07:19;;;;;;;;;;;11.10;99.60;;;11.40;68.30;99091.28;4988320;28;115246;-78
2023/04/17 01:09:46;;;;;;;;;;;11.10;99.60;;;11.38;68.09;99090.78;4986698;28;113522;-79
2023/04/17 01:12:20;;;;;;;;;;;11.10;99.60;;;11.38;68.04;99088.00;4986332;28;124531;-79
2023/04/17 01:14:55;;;;;;;;;;;11.10;99.60;;;11.37;68.01;99085.56;4985295;28;123336;-78
2023/04/17 01:17:24;;;;;;;;;;;11.10;99.60;;;11.34;68.05;99087.00;4969234;28;114830;-77
2023/04/17 01:19:54;;;;;;;;;;;12.60;99.90;;;11.34;68.54;99092.53;4986822;28;113215;-78
2023/04/17 01:22:20;;;;;;;;;;;11.10;99.60;;;11.32;68.56;99082.91;4986218;28;124379;-78
2023/04/17 01:24:49;;;;;;;;;;;11.10;99.60;;;11.34;68.44;99088.94;4976701;28;123781;-79
2023/04/17 01:27:21;;;;;;;;;;;11.10;99.60;;;11.33;68.81;99085.34;4970695;28;115174;-78
2023/04/17 01:29:47;;;;;;;;;;;11.10;99.60;;;11.34;68.22;99087.00;4977896;28;114875;-79
2023/04/17 01:32:22;;;;;;;;;;;11.10;99.60;;;11.31;68.11;99087.63;4980037;28;124206;-78
2023/04/17 01:34:48;;;;;;;;;;;11.10;99.50;;;11.30;68.44;99091.50;4976348;28;124022;-77
2023/04/17 01:37:17;;;;;;;;;;;11.00;99.50;;;11.26;68.54;99087.75;4982893;28;114414;-78
2023/04/17 01:39:44;;;;;;;;;;;11.00;99.60;;;11.27;68.35;99092.13;4973077;28;113664;-78
2023/04/17 01:42:10;;;;;;;;;;;11.00;99.60;;;11.27;68.22;99089.38;4975309;28;124815;-78
2023/04/17 01:44:37;;;;;;;;;;;11.00;99.60;;;11.27;68.77;99086.59;4986765;28;124352;-81
2023/04/17 01:47:03;;;;;;;;;;;11.00;99.60;;;11.31;68.29;99086.78;4988257;28;114397;-82
2023/04/17 01:49:32;;;;;;;;;;;11.00;99.60;;;11.32;68.56;99092.03;4981284;28;113869;-77
2023/04/17 01:51:59;;;;;;;;;;;11.00;99.60;;;11.33;68.45;99090.88;4970251;28;123610;-80
2023/04/17 01:54:35;;;;;;;;;;;11.10;99.60;;;11.33;68.39;99090.06;4970467;28;124161;-78
2023/04/17 01:57:06;;;;;;;;;;;11.00;99.60;;;11.31;68.25;99093.16;4974177;28;114288;-79
2023/04/17 01:59:32;;;;;;;;;;;11.00;99.60;;;11.30;68.31;99085.16;4972130;28;113663;-79
2023/04/17 02:01:58;;;;;;;;;;;11.00;99.60;;;11.30;68.28;99087.94;4974204;28;126739;-79
2023/04/17 02:04:25;;;;;;;;;;;11.00;99.60;;;11.28;68.36;99091.00;4979558;28;124518;-77
2023/04/17 02:06:53;;;;;;;;;;;11.00;99.60;;;11.26;68.51;99084.97;4973612;28;114426;-77
2023/04/17 02:09:19;;;;;;;;;;;11.00;99.50;;;11.23;68.16;99080.03;4975638;28;113669;-79
2023/04/17 02:11:48;;;;;;;;;;;11.00;99.60;;;11.21;68.41;99082.31;4981054;28;124710;-77
2023/04/17 02:14:17;;;;;;;;;;;11.00;99.60;;;11.21;68.62;99085.09;4970337;28;124603;-77
2023/04/17 02:16:46;;;;;;;;;;;10.90;99.60;;;11.18;68.68;99082.94;4971834;28;114738;-78
2023/04/17 02:19:12;;;;;;;;;;;10.90;99.60;;;11.16;68.63;99074.94;4972601;28;115089;-77
2023/04/17 02:21:41;;;;;;;;;;;10.90;99.50;;;11.16;68.93;99082.44;4976062;28;124146;-79
2023/04/17 02:24:07;;;;;;;;;;;10.90;99.60;;;11.16;68.55;99074.13;4972179;28;123844;-77
2023/04/17 02:26:35;;;;;;;;;;;13.20;99.90;;;11.15;68.76;99080.78;4976962;28;114395;-80
2023/04/17 02:29:05;;;;;;;;;;;10.90;99.60;;;11.13;68.78;99080.28;4976974;28;113606;-77
2023/04/17 02:31:32;;;;;;;;;;;10.90;99.60;;;11.13;68.63;99091.34;4975312;28;124598;-77
2023/04/17 02:33:58;;;;;;;;;;;10.90;99.70;;;11.12;68.74;99089.69;4975610;28;124515;-77
2023/04/17 02:36:26;;;;;;;;;;;10.80;99.60;;;11.11;68.52;99086.13;4960843;28;114433;-77
2023/04/17 02:38:53;;;;;;;;;;;10.80;99.70;;;11.09;68.85;99090.31;4974763;28;113975;-77
2023/04/17 02:41:20;;;;;;;;;;;10.80;99.70;;;11.09;69.37;99096.66;4981444;28;124295;-79
2023/04/17 02:43:47;;;;;;;;;;;10.90;99.80;;;11.08;68.76;99083.16;4981879;28;124075;-78
2023/04/17 02:46:13;;;;;;;;;;;10.80;99.70;;;11.09;68.70;99090.31;4987721;28;114658;-82
2023/04/17 02:48:41;;;;;;;;;;;10.80;99.70;;;11.10;68.97;99091.97;4984507;28;113805;-81
2023/04/17 02:51:10;;;;;;;;;;;10.80;99.70;;;11.11;68.85;99085.28;4979473;28;124076;-78
2023/04/17 02:53:36;;;;;;;;;;;10.80;99.70;;;11.12;69.09;99090.50;4982936;28;124682;-77
2023/04/17 02:56:05;;;;;;;;;;;10.80;99.80;;;11.12;68.87;99089.69;4971451;28;116176;-80
2023/04/17 02:58:33;;;;;;;;;;;10.80;99.80;;;11.11;69.02;99086.13;4979985;28;113763;-78
2023/04/17 03:01:11;;;;;;;;;;;10.80;99.80;;;11.11;68.99;99088.88;4986588;28;124139;-78
2023/04/17 03:03:46;;;;;;;;;;;10.80;99.80;;;11.08;69.05;99086.72;4978932;28;124475;-77
2023/04/17 03:06:12;;;;;;;;;;;10.80;99.70;;;11.08;69.11;99095.03;4973520;28;115193;-78
2023/04/17 03:08:42;;;;;;;;;;;10.80;99.70;;;11.08;69.14;99088.69;4979003;28;115057;-78
2023/04/17 03:11:08;;;;;;;;;;;10.80;99.80;;;11.10;69.03;99091.97;4970947;28;124210;-78
2023/04/17 03:13:43;;;;;;;;;;;10.80;99.80;;;11.09;68.78;99091.13;4984283;28;124097;-78
2023/04/17 03:16:10;;;;;;;;;;;10.80;99.80;;;11.09;69.01;99077.28;4982750;28;114570;-78
2023/04/17 03:18:46;;;;;;;;;;;12.10;99.90;;;11.12;68.93;99081.41;4987261;28;113426;-78
2023/04/17 03:21:13;;;;;;;;;;;10.80;99.80;;;11.12;68.70;99082.22;4974808;28;124402;-78
2023/04/17 03:23:42;;;;;;;;;;;10.90;99.80;;;11.14;68.78;99081.91;4967794;28;123693;-78
2023/04/17 03:26:08;;;;;;;;;;;10.90;99.80;;;11.14;68.34;99081.91;4968833;28;115133;-77
2023/04/17 03:28:35;;;;;;;;;;;10.90;99.80;;;11.15;68.88;99080.78;4970957;28;114052;-78
2023/04/17 03:31:01;;;;;;;;;;;10.90;99.80;;;11.16;68.80;99085.19;4988299;28;124654;-79
2023/04/17 03:33:29;;;;;;;;;;;10.90;99.70;;;11.15;68.30;99078.84;4978552;28;123362;-78
2023/04/17 03:35:56;;;;;;;;;;;10.90;99.80;;;11.16;68.88;99087.97;4987831;28;114363;-78
2023/04/17 03:38:22;;;;;;;;;;;10.80;99.70;;;11.14;68.71;99090.22;4972640;28;111820;-78
2023/04/17 03:40:48;;;;;;;;;;;10.90;99.70;;;11.08;68.58;99089.50;4987498;28;124146;-78
2023/04/17 03:43:18;;;;;;;;;;;10.80;99.60;;;11.06;68.58;99089.78;4979610;28;123982;-79
2023/04/17 03:45:44;;;;;;;;;;;10.80;99.60;;;11.08;68.41;99096.97;4982411;28;114250;-78
2023/04/17 03:48:10;;;;;;;;;;;10.80;99.60;;;11.10;68.47;99098.31;4987570;28;113594;-78
2023/04/17 03:50:36;;;;;;;;;;;10.80;99.60;;;11.11;68.57;99094.41;4986056;28;124274;-78
2023/04/17 03:53:03;;;;;;;;;;;10.80;99.60;;;11.11;68.54;99094.41;4982837;28;124312;-77
2023/04/17 03:55:29;;;;;;;;;;;10.80;99.60;;;11.09;68.78;99096.66;4971583;28;115398;-78
2023/04/17 03:57:58;;;;;;;;;;;9.90;99.70;;;11.11;68.39;99096.34;4972164;28;114742;-77
2023/04/17 04:00:24;;;;;;;;;;;10.80;99.60;;;11.11;68.31;99104.66;4979289;28;124953;-79
2023/04/17 04:02:51;;;;;;;;;;;10.80;99.60;;;11.08;68.64;99105.28;4978690;28;123960;-78
2023/04/17 04:05:17;;;;;;;;;;;10.80;99.60;;;11.07;68.35;99098.94;4981849;28;114243;-78
2023/04/17 04:07:46;;;;;;;;;;;10.80;99.60;;;11.04;68.63;99096.75;4973127;28;113753;-82
2023/04/17 04:10:12;;;;;;;;;;;10.80;99.60;;;11.06;68.65;99109.16;4978124;28;124300;-77
2023/04/17 04:12:41;;;;;;;;;;;10.80;99.60;;;11.05;68.60;99095.66;4985573;28;123834;-79
2023/04/17 04:15:17;;;;;;;;;;;10.80;99.60;;;11.06;68.26;99108.34;4977857;28;114665;-80
2023/04/17 04:17:46;;;;;;;;;;;10.80;99.60;;;11.04;68.73;99111.44;4980948;28;114167;-78
2023/04/17 04:20:12;;;;;;;;;;;10.70;99.60;;;11.04;68.41;99108.66;4964016;28;123206;-79
2023/04/17 04:22:40;;;;;;;;;;;10.80;99.70;;;11.04;68.55;99105.91;4980596;28;124242;-79
2023/04/17 04:25:11;;;;;;;;;;;10.70;99.60;;;11.02;68.50;99105.38;4969654;28;114268;-79
2023/04/17 04:27:38;;;;;;;;;;;10.70;99.60;;;11.01;68.41;99112.00;4967604;28;113745;-79
2023/04/17 04:30:05;;;;;;;;;;;10.80;99.70;;;11.03;68.58;99109.78;4977475;28;124267;-77
2023/04/17 04:32:35;;;;;;;;;;;10.70;99.60;;;11.02;68.64;99110.91;4990220;28;124127;-79
2023/04/17 04:35:01;;;;;;;;;;;10.70;99.60;;;10.99;68.73;99114.28;4979851;28;113648;-77
2023/04/17 04:37:28;;;;;;;;;;;10.70;99.50;;;10.98;68.33;99107.09;4977685;28;113740;-79
2023/04/17 04:40:00;;;;;;;;;;;10.70;99.50;;;10.98;68.40;99112.63;4982312;28;124745;-78
2023/04/17 04:42:28;;;;;;;;;;;10.70;99.50;;;10.98;68.46;99112.63;4971802;28;123712;-78
2023/04/17 04:44:54;;;;;;;;;;;10.70;99.50;;;10.99;68.68;99119.00;4983934;28;114306;-77
2023/04/17 04:47:22;;;;;;;;;;;10.70;99.50;;;10.99;68.65;99117.06;4974635;28;114863;-78
2023/04/17 04:49:49;;;;;;;;;;;10.80;99.60;;;10.99;68.51;99114.28;4974043;28;124859;-79
2023/04/17 04:52:18;;;;;;;;;;;10.70;99.50;;;11.00;68.13;99117.88;4974026;28;123880;-78
2023/04/17 04:54:47;;;;;;;;;;;10.70;99.50;;;10.98;68.63;99115.41;4979627;28;114214;-79
2023/04/17 04:57:18;;;;;;;;;;;10.70;99.50;;;10.98;68.81;99118.16;4989166;28;114060;-79
2023/04/17 04:59:47;;;;;;;;;;;10.70;99.50;;;11.00;68.72;99124.22;4970406;28;125131;-77
2023/04/17 05:02:13;;;;;;;;;;;10.70;99.50;;;10.98;68.71;99129.22;4970112;28;123990;-78
2023/04/17 05:04:42;;;;;;;;;;;10.70;99.60;;;11.01;68.50;99123.06;4971085;28;115092;-79
2023/04/17 05:07:11;;;;;;;;;;;10.70;99.50;;;11.00;68.39;99121.44;4979527;28;113450;-80
2023/04/17 05:09:37;;;;;;;;;;;10.70;99.50;;;11.01;68.59;99128.59;4971134;28;124150;-78
2023/04/17 05:12:06;;;;;;;;;;;10.70;99.50;;;11.02;68.37;99133.03;4970779;28;123902;-78
2023/04/17 05:14:32;;;;;;;;;;;10.80;99.50;;;11.03;68.27;99131.88;4969292;28;114508;-77
2023/04/17 05:17:01;;;;;;;;;;;10.80;99.50;;;11.05;68.44;99132.41;4972495;28;111651;-81
2023/04/17 05:19:30;;;;;;;;;;;10.80;99.50;;;11.04;68.27;99128.00;4970169;28;124899;-80
2023/04/17 05:21:57;;;;;;;;;;;10.80;99.60;;;11.06;68.41;99131.28;4970845;28;122875;-78
2023/04/17 05:24:23;;;;;;;;;;;10.80;99.50;;;11.07;68.40;99126.59;4980975;28;114347;-77
2023/04/17 05:26:49;;;;;;;;;;;10.80;99.50;;;11.06;68.02;99120.22;4975485;28;113872;-81
2023/04/17 05:29:18;;;;;;;;;;;10.80;99.50;;;11.09;68.26;99132.59;4970788;28;125560;-80
2023/04/17 05:31:45;;;;;;;;;;;10.80;99.50;;;11.12;68.46;99131.97;4976094;28;123264;-82
2023/04/17 05:34:11;;;;;;;;;;;10.80;99.60;;;11.15;68.62;99133.31;4970934;28;114961;-83
2023/04/17 05:36:37;;;;;;;;;;;10.80;99.70;;;11.18;69.00;99133.53;4977325;28;114685;-83
2023/04/17 05:39:07;;;;;;;;;;;10.90;99.90;;;11.19;68.54;99139.88;4973823;28;124307;-83
2023/04/17 05:41:35;;;;;;;;;;;10.90;99.80;;;11.18;68.62;99144.59;4969778;28;123985;-80
2023/04/17 05:44:06;;;;;;;;;;;10.90;99.70;;;11.17;68.71;99136.59;4971629;28;114008;-79
2023/04/17 05:46:33;;;;;;;;;;;10.90;99.70;;;11.17;68.76;99148.47;4973513;28;113851;-80
2023/04/17 05:49:05;;;;;;;;;;;10.90;99.60;;;11.17;68.67;99144.91;4976251;28;125095;-80
2023/04/17 05:51:31;;;;;;;;;;;10.90;99.60;;;11.17;68.64;99142.94;4981785;28;123880;-80
2023/04/17 05:53:57;;;;;;;;;;;10.90;99.60;;;11.18;68.12;99143.78;4971483;28;114834;-80
2023/04/17 05:56:26;;;;;;;;;;;10.90;99.60;;;11.20;68.46;99147.03;4974357;28;113928;-80
2023/04/17 05:58:53;;;;;;;;;;;10.90;99.50;;;11.19;68.31;99146.22;4975570;28;123831;-80
2023/04/17 06:01:21;;;;;;;;;;;10.90;99.60;;;11.20;68.08;99147.88;4982878;28;124303;-89
2023/04/17 06:03:47;;;;;;;;;;;10.90;99.50;;;11.20;68.34;99152.56;4960725;28;113940;-79
2023/04/17 06:06:20;;;;;;;;;;;10.90;99.50;;;11.21;68.17;99152.28;4972254;28;114867;-79
2023/04/17 06:08:47;;;;;;;;;;;10.90;99.50;;;11.22;68.41;99144.78;4972209;28;123468;-83
2023/04/17 06:11:23;;;;;;;;;;;10.90;99.50;;;11.20;68.32;99149.81;4970001;28;124150;-79
2023/04/17 06:13:50;;;;;;;;;;;10.90;99.50;;;11.17;68.36;99153.19;4983935;28;113790;-80
2023/04/17 06:16:22;;;;;;;;;;;10.90;99.50;;;11.17;68.27;99153.19;4980287;28;113488;-80
2023/04/17 06:18:55;;;;;;;;;;;10.90;99.50;;;11.17;68.57;99155.97;4982596;28;124489;-81
2023/04/17 06:21:21;;;;;;;;;;;10.90;99.90;;;11.16;68.78;99157.91;4987114;28;124198;-78
2023/04/17 06:23:48;;;;;;;;;;;10.90;99.80;;;11.17;68.74;99159.53;4981770;28;114426;-80
2023/04/17 06:26:18;;;;;;;;;;;10.90;99.70;;;11.19;68.70;99157.28;4983738;28;114602;-78
2023/04/17 06:28:44;;;;;;;;;;;10.90;99.80;;;11.21;68.97;99154.22;4973136;28;124167;-82
2023/04/17 06:34:39;;;;;;;;;;;10.90;99.80;;;11.23;68.68;99157.47;4975602;28;115450;-83
2023/04/17 06:37:05;;;;;;;;;;;11.00;99.80;;;11.23;68.94;99163.84;4973173;28;113343;-85
2023/04/17 06:39:37;;;;;;;;;;;11.00;99.90;;;11.24;69.02;99164.69;4987020;28;124674;-81
2023/04/17 06:42:05;;;;;;;;;;;11.00;99.80;;;11.25;68.50;99167.13;4973057;28;123913;-83
2023/04/17 06:44:34;;;;;;;;;;;11.00;99.90;;;11.24;68.57;99159.94;4983591;28;114419;-88
2023/04/17 06:47:04;;;;;;;;;;;10.90;99.90;;;11.26;68.91;99167.97;4970530;28;112790;-80
2023/04/17 06:53:02;;;;;;;;;;;11.00;99.90;;;11.27;68.73;99169.59;4974383;28;124489;-86
2023/04/17 06:55:28;;;;;;;;;;;11.60;99.90;;;11.27;68.49;99169.59;4972624;28;115013;-86
2023/04/17 06:57:57;;;;;;;;;;;11.00;99.70;;;11.20;68.88;99169.16;4984706;28;113650;-87
2023/04/17 07:00:23;;;;;;;;;;;11.00;99.70;;;11.17;68.82;99173.38;4973151;28;124024;-84
2023/04/17 07:02:50;;;;;;;;;;;11.00;99.70;;;11.19;68.51;99171.13;4967709;28;123721;-85
2023/04/17 07:05:16;;;;;;;;;;;11.00;99.80;;;11.24;68.83;99170.22;4966972;28;114390;-84
2023/04/17 07:07:45;;;;;;;;;;;11.00;99.80;;;11.30;68.74;99173.69;4968645;28;114137;-85
2023/04/17 07:10:14;;;;;;;;;;;11.00;99.80;;;11.29;68.50;99172.88;4969853;28;125673;-87
2023/04/17 07:12:40;;;;;;;;;;;11.00;99.80;;;11.28;68.73;99179.50;4967826;28;124026;-87
2023/04/17 07:15:07;;;;;;;;;;;11.00;99.70;;;11.29;68.59;99181.16;4976120;28;115602;-86
2023/04/17 07:17:40;;;;;;;;;;;11.10;99.80;;;11.24;68.69;99178.50;4976705;28;114168;-86
2023/04/17 07:20:12;;;;;;;;;;;11.00;99.80;;;11.22;68.64;99178.78;4968399;28;124959;-84
2023/04/17 07:22:38;;;;;;;;;;;11.00;99.80;;;11.22;69.05;99189.84;4977283;28;124471;-87
2023/04/17 07:25:09;;;;;;;;;;;11.00;99.80;;;11.27;68.92;99187.00;4965835;28;113987;-86
2023/04/17 07:27:37;;;;;;;;;;;11.00;99.80;;;11.29;68.58;99186.69;4952098;28;113353;-85
2023/04/17 07:30:09;;;;;;;;;;;11.00;99.80;;;11.30;68.62;99184.75;4966038;28;124240;-84
2023/04/17 07:32:38;;;;;;;;;;;11.00;99.80;;;11.30;68.95;99185.56;4968972;28;123848;-86
2023/04/17 07:35:05;;;;;;;;;;;11.00;99.80;;;11.30;68.48;99190.28;4967872;28;115117;-84
2023/04/17 07:37:36;;;;;;;;;;;11.00;99.80;;;11.29;68.89;99189.47;4976979;28;113376;-87
2023/04/17 07:40:10;;;;;;;;;;;11.00;99.90;;;11.28;69.00;99190.56;4985443;28;123602;-87
2023/04/17 07:42:39;;;;;;;;;;;11.00;99.90;;;11.28;69.00;99187.81;4974402;28;124683;-86
2023/04/17 07:45:11;;;;;;;;;;;11.00;99.90;;;11.28;69.00;99191.41;4974704;28;115017;-85
2023/04/17 07:47:38;;;;;;;;;;;11.00;99.90;;;11.31;69.18;99192.75;4982049;28;114444;-85
2023/04/17 07:50:05;;;;;;;;;;;11.00;99.90;;;11.32;68.93;99199.91;4979132;28;123342;-85
2023/04/17 07:52:33;;;;;;;;;;;11.00;99.90;;;11.33;69.33;99201.53;4985899;28;124494;-87
2023/04/17 07:54:59;;;;;;;;;;;11.10;99.90;;;11.35;69.08;99198.47;4987246;28;114682;-85
2023/04/17 07:57:26;;;;;;;;;;;11.10;99.90;;;11.38;69.03;99200.63;4971183;28;113694;-85
2023/04/17 07:59:52;;;;;;;;;;;11.10;99.90;;;11.39;69.09;99197.56;4966629;28;124668;-82
2023/04/17 08:02:25;;;;;;;;;;;11.10;99.90;;;11.41;69.07;99195.28;4970058;28;124160;-86
2023/04/17 08:04:53;;;;;;;;;;;11.10;99.90;;;11.41;68.75;99198.06;4973105;28;115322;-84
2023/04/17 08:07:21;;;;;;;;;;;11.10;99.90;;;11.45;69.12;99199.09;4989863;28;114667;-85
2023/04/17 08:09:47;;;;;;;;;;;11.10;99.90;;;11.39;69.25;99199.50;4971467;28;123783;-87
2023/04/17 08:12:13;;;;;;;;;;;11.10;99.90;;;11.36;69.39;99200.91;4979371;28;124521;-86
2023/04/17 08:14:40;;;;;;;;;;;11.10;99.90;;;11.36;69.21;99211.97;4985307;28;114429;-86
2023/04/17 08:17:10;;;;;;;;;;;11.10;99.90;;;11.38;69.07;99203.38;4989717;28;114401;-87
2023/04/17 08:19:36;;;;;;;;;;;11.10;99.90;;;11.36;69.48;99208.41;4975535;28;124097;-82
2023/04/17 08:22:10;;;;;;;;;;;12.20;99.90;;;11.38;69.47;99208.94;4984989;28;124184;-82
2023/04/17 08:24:37;;;;;;;;;;;11.10;99.90;;;11.41;69.07;99208.31;4972784;28;115087;-85
2023/04/17 08:27:04;;;;;;;;;;;11.10;99.90;;;11.43;69.11;99208.81;4984799;28;113613;-86
2023/04/17 08:29:36;;;;;;;;;;;11.10;99.90;;;11.44;69.25;99213.22;4981783;28;123906;-83
2023/04/17 08:32:02;;;;;;;;;;;11.20;99.90;;;11.43;68.85;99209.63;4985273;28;124156;-83
2023/04/17 08:34:30;;;;;;;;;;;11.10;99.90;;;11.42;68.90;99212.72;4981454;28;114635;-83
2023/04/17 08:36:57;;;;;;;;;;;11.20;99.90;;;11.43;69.11;99217.94;4990167;28;113619;-84
2023/04/17 08:39:26;;;;;;;;;;;11.20;99.90;;;11.47;69.16;99218.97;4979594;28;124804;-83
2023/04/17 08:42:01;;;;;;;;;;;11.20;99.90;;;11.48;69.02;99217.84;4989114;28;124516;-82
2023/04/17 08:44:33;;;;;;;;;;;11.20;99.90;;;11.52;69.19;99218.03;4990554;28;114311;-84
2023/04/17 08:46:59;;;;;;;;;;;11.20;99.90;;;11.55;68.93;99217.41;4976240;28;113172;-84
2023/04/17 08:49:28;;;;;;;;;;;11.20;99.90;;;11.63;68.70;99224.16;4979013;28;124405;-85
2023/04/17 08:51:56;;;;;;;;;;;12.90;99.90;;;11.69;68.62;99225.72;4988672;28;123898;-81
2023/04/17 08:54:22;;;;;;;;;;;11.40;99.90;;;11.76;68.87;99226.09;4989220;28;116038;-84
2023/04/17 08:56:49;;;;;;;;;;;11.40;99.90;;;11.81;68.56;99223.22;4988891;28;114607;-83
2023/04/17 08:59:16;;;;;;;;;;;12.20;99.90;;;11.84;68.25;99228.13;4987545;28;124310;-84
2023/04/17 09:02:02;;;;;;;;;;;11.40;99.90;;;11.86;68.26;99220.38;4986399;28;123517;-82
2023/04/17 09:04:40;;;;;;;;;;;11.50;99.90;;;11.85;68.16;99221.50;4977007;28;114023;-80
2023/04/17 09:07:14;;;;;;;;;;;11.50;99.90;;;11.84;68.00;99222.59;4974702;28;114071;-81
2023/04/17 09:09:51;;;;;;;;;;;11.50;99.90;;;11.88;68.14;99223.66;4957872;28;123308;-84
2023/04/17 09:12:22;;;;;;;;;;;11.50;99.90;;;11.93;67.88;99223.56;4981969;28;125111;-80
2023/04/17 09:14:54;;;;;;;;;;;11.50;99.90;;;11.93;67.83;99231.06;4987425;28;114231;-80
2023/04/17 09:17:23;;;;;;;;;;;11.60;99.90;;;11.96;67.80;99213.81;4987707;28;113445;-82
2023/04/17 09:20:10;;;;;;;;;;;11.60;99.80;;;12.02;67.77;99231.94;4987328;28;123947;-82
2023/04/17 09:22:43;;;;;;;;;;;11.70;99.80;;;12.05;67.67;99222.19;4977478;28;123963;-81
2023/04/17 09:25:19;;;;;;;;;;;11.70;99.80;;;12.04;67.76;99223.34;4982492;28;114279;-81
2023/04/17 09:27:46;;;;;;;;;;;11.60;99.90;;;12.05;68.19;99227.72;4980353;28;112454;-80
2023/04/17 09:30:18;;;;;;;;;;;11.70;99.90;;;12.08;67.83;99221.56;4972321;28;124220;-83
2023/04/17 09:32:46;;;;;;;;;;;11.70;99.90;;;12.06;68.10;99227.44;4987446;28;124884;-81
2023/04/17 09:35:28;;;;;;;;;;;11.70;99.90;;;12.11;68.02;99230.06;4973775;28;114149;-80
2023/04/17 09:37:58;;;;;;;;;;;11.80;99.90;;;12.14;68.03;99221.16;4977481;28;114189;-81
2023/04/17 09:40:44;;;;;;;;;;;11.80;99.90;;;12.20;68.25;99229.31;4977102;28;124351;-81
2023/04/17 09:43:16;;;;;;;;;;;11.90;99.90;;;12.29;67.89;99224.69;4979213;28;123450;-82
2023/04/17 09:45:43;;;;;;;;;;;11.90;99.90;;;12.32;67.53;99232.38;4968947;28;115482;-81
2023/04/17 09:48:30;;;;;;;;;;;11.90;99.90;;;12.31;67.21;99226.00;4969261;28;114506;-82
2023/04/17 09:51:01;;;;;;;;;;;11.90;99.90;;;12.36;67.36;99225.06;4970380;28;124309;-80
2023/04/17 09:53:27;;;;;;;;;;;11.90;99.90;;;12.43;67.31;99230.16;4995003;28;123683;-80
2023/04/17 09:55:54;;;;;;;;;;;12.00;99.80;;;12.46;66.79;99230.34;4973916;28;114564;-80
2023/04/17 09:58:25;;;;;;;;;;;12.00;99.50;;;12.48;66.82;99224.50;4977452;28;114799;-81
2023/04/17 10:00:51;;;;;;;;;;;12.10;99.70;;;12.50;66.90;99225.81;4986162;28;124708;-82
2023/04/17 10:03:25;;;;;;;;;;;12.10;99.30;;;12.48;66.12;99227.28;4979740;28;124282;-83
2023/04/17 10:05:51;;;;;;;;;;;12.10;99.00;;;12.47;65.92;99234.78;4986808;28;114449;-81
2023/04/17 10:08:27;;;;;;;;;;;12.10;98.90;;;12.48;66.05;99224.50;4980993;28;114690;-83
2023/04/17 10:11:05;;;;;;;;;;;12.10;98.80;;;12.46;65.50;99224.81;4983606;28;124565;-81
2023/04/17 10:13:32;;;;;;;;;;;12.10;98.70;;;12.48;65.81;99225.31;4970033;28;123222;-81
2023/04/17 10:16:01;;;;;;;;;;;12.10;98.70;;;12.54;65.77;99223.25;4975650;28;116806;-80
2023/04/17 10:18:27;;;;;;;;;;;12.20;98.80;;;12.56;65.57;99218.19;4972018;28;112822;-81
2023/04/17 10:20:54;;;;;;;;;;;12.20;98.60;;;12.61;65.42;99209.75;4979611;28;123635;-83
2023/04/17 10:23:32;;;;;;;;;;;12.20;98.60;;;12.68;65.44;99207.38;4983051;28;123576;-82
2023/04/17 10:26:37;;;;;;;;;;;12.30;98.70;;;12.76;65.12;99214.94;4970506;28;114492;-83
2023/04/17 10:29:03;;;;;;;;;;;12.30;98.50;;;12.85;64.70;99216.94;4988282;28;113994;-80
2023/04/17 10:32:04;;;;;;;;;;;14.80;99.50;;;12.89;64.57;99207.63;4970051;28;124025;-82
2023/04/17 10:34:42;;;;;;;;;;;12.40;98.30;;;12.93;64.30;99205.06;4987066;28;124202;-83
2023/04/17 10:37:18;;;;;;;;;;;12.50;98.20;;;12.93;63.89;99202.28;4971136;28;115665;-81
2023/04/17 10:39:55;;;;;;;;;;;12.40;97.80;;;12.94;63.41;99193.63;4971831;28;114104;-84
2023/04/17 10:42:27;;;;;;;;;;;12.50;97.80;;;12.99;63.56;99201.00;4975502;28;124937;-84
2023/04/17 10:45:07;;;;;;;;;;;12.50;97.90;;;13.08;63.34;99196.31;4971024;28;124269;-84
2023/04/17 10:47:37;;;;;;;;;;;12.60;97.70;;;13.16;62.87;99195.53;4970233;28;114939;-85
2023/04/17 10:50:07;;;;;;;;;;;12.70;97.50;;;13.19;62.46;99194.91;4972351;28;114374;-82
2023/04/17 10:52:39;;;;;;;;;;;12.70;97.30;;;13.24;62.08;99193.94;4988427;28;123679;-83
2023/04/17 10:55:16;;;;;;;;;;;12.80;97.10;;;13.29;61.91;99182.72;4987333;28;123902;-80
2023/04/17 10:58:03;;;;;;;;;;;12.80;97.00;;;13.35;61.86;99194.50;4970605;28;114643;-84
2023/04/17 11:00:38;;;;;;;;;;;12.80;97.00;;;13.39;61.75;99189.94;4973857;28;113978;-81
2023/04/17 11:03:05;;;;;;;;;;;15.00;97.90;;;13.41;61.31;99187.69;4975711;28;124054;-83
2023/04/17 11:05:43;;;;;;;;;;;12.90;96.70;;;13.48;61.31;99182.44;4986259;28;123716;-81
2023/04/17 11:08:15;;;;;;;;;;;13.00;96.80;;;13.54;60.83;99183.97;4986219;28;114548;-81
2023/04/17 11:10:42;;;;;;;;;;;13.00;96.30;;;13.56;60.67;99186.41;4973853;28;113844;-81
2023/04/17 11:13:09;;;;;;;;;;;13.10;96.30;;;13.62;60.63;99177.63;4969317;28;123607;-83
2023/04/17 11:15:48;;;;;;;;;;;13.10;96.20;;;13.69;60.45;99186.25;4980724;28;123874;-80
2023/04/17 11:18:15;;;;;;;;;;;13.20;96.20;;;13.85;60.58;99180.25;4980691;28;114326;-82
2023/04/17 11:20:41;;;;;;;;;;;13.30;96.40;;;13.98;60.32;99170.13;4968055;28;113776;-81
2023/04/17 11:23:07;;;;;;;;;;;13.50;96.20;;;14.04;59.42;99172.41;4981610;28;124290;-81
2023/04/17 11:25:40;;;;;;;;;;;13.50;95.70;;;14.05;58.84;99176.84;4978046;28;123369;-82